Reno, Nevada
Current Conditions -  °F | °C
As of 3:55 PM on Thursday 18 Dec 2014 (Local Time) from KRNO Reporting Station
Broken Clouds Broken Clouds  
Wind Chill: 49°   Ceiling: 25000
Heat Index: 49°   Visibility: 10mi
Dew Point: 28°   Wind: 0mph
Humidity: 44%   Direction: NA
Pressure: 30.1"   Gusts: NA
Location:  39.52°N, 119.81°W
Report Text: KRNO 182355Z 00000KT 10SM FEW060 FEW150 SCT200 BKN250 09/M02 A3010 RMK AO2 SLP187 ACSL DSNT SE SW T00941022 10100 20033 55005
Loading
Personal Weather Stations






























Interactive Weather Map New forecast layout! Learn more

10-Day Weather Forecast

Advertisements
Track Severe Weather on mobile